createdAt,value
2023-11-13T00:04:22.644Z,18.5
2023-11-13T00:10:15.193Z,18.5
2023-11-13T00:16:06.575Z,18.5
2023-11-13T00:21:59.469Z,18.5
2023-11-13T00:27:50.636Z,18.4
2023-11-13T00:33:43.164Z,18.5
2023-11-13T00:39:35.276Z,18.5
2023-11-13T00:45:30.399Z,18.5
2023-11-13T00:51:22.666Z,18.5
2023-11-13T00:57:15.116Z,18.5
2023-11-13T01:03:07.254Z,18.4
2023-11-13T01:09:00.206Z,18.6
2023-11-13T01:14:52.102Z,18.9
2023-11-13T01:20:43.113Z,19.5
2023-11-13T01:26:38.871Z,20.2
2023-11-13T01:32:30.922Z,20.9
2023-11-13T01:38:22.365Z,21.8
2023-11-13T01:44:14.237Z,22.7
2023-11-13T01:50:07.147Z,23.5
2023-11-13T01:55:58.844Z,24.4
2023-11-13T02:01:50.499Z,25.3
2023-11-13T02:07:42.875Z,26.2
2023-11-13T02:13:34.321Z,27.1
2023-11-13T02:19:26.282Z,28
2023-11-13T02:25:03.035Z,28.9
2023-11-13T02:30:54.345Z,29.8
2023-11-13T02:36:46.678Z,30.3
2023-11-13T02:42:38.035Z,30.4
2023-11-13T02:48:29.513Z,30.6
2023-11-13T02:54:22.032Z,30.8
2023-11-13T03:00:14.146Z,30.8
2023-11-13T03:06:06.266Z,30.8
2023-11-13T03:11:58.085Z,30.8
2023-11-13T03:17:34.477Z,30.8
2023-11-13T03:23:25.654Z,30.8
2023-11-13T03:29:02.581Z,30.8
2023-11-13T03:34:55.140Z,30.8
2023-11-13T03:40:31.458Z,30.8
2023-11-13T03:46:23.310Z,30.8
2023-11-13T03:52:15.586Z,30.8
2023-11-13T03:58:07.811Z,30.8
2023-11-13T04:04:00.499Z,30.8
2023-11-13T04:09:52.636Z,30.7
2023-11-13T04:15:43.479Z,30.7
2023-11-13T04:21:20.273Z,30.7
2023-11-13T04:26:57.038Z,30.7
2023-11-13T04:32:52.509Z,30.6
2023-11-13T04:38:29.637Z,30.6
2023-11-13T04:44:21.546Z,30.6
2023-11-13T04:50:13.251Z,30.6
2023-11-13T04:56:04.872Z,30.6
2023-11-13T05:02:01.124Z,30.6
2023-11-13T05:07:53.455Z,30.6
2023-11-13T05:13:45.650Z,30.5
2023-11-13T05:19:40.413Z,30.5
2023-11-13T05:25:32.270Z,30.4
2023-11-13T05:31:24.360Z,30.4
2023-11-13T05:37:16.974Z,30.4
2023-11-13T05:43:08.024Z,30.4
2023-11-13T05:49:02.872Z,30.4
2023-11-13T05:54:55.462Z,30.3
2023-11-13T06:00:47.972Z,30.3
2023-11-13T06:06:40.556Z,30.3
2023-11-13T06:12:35.567Z,30.3
2023-11-13T06:18:27.034Z,30.3
2023-11-13T06:24:02.791Z,30.2
2023-11-13T06:29:58.657Z,30.2
2023-11-13T06:35:52.693Z,30.2
2023-11-13T06:41:29.457Z,30.1
2023-11-13T06:47:22.723Z,31.6
2023-11-13T06:53:14.985Z,37.1
2023-11-13T06:59:06.583Z,35.1
2023-11-13T07:05:00.428Z,40.2
2023-11-13T07:10:35.416Z,39.1
2023-11-13T07:16:31.206Z,39.8
2023-11-13T07:22:24.117Z,39.8
2023-11-13T07:28:15.898Z,40.4
2023-11-13T07:34:08.518Z,41.1
2023-11-13T07:40:01.387Z,41.4
2023-11-13T07:45:53.847Z,41.3
2023-11-13T07:52:03.560Z,42.2
2023-11-13T07:57:57.471Z,42.8
2023-11-13T08:03:49.341Z,43.4
2023-11-13T08:09:49.748Z,44.1
2023-11-13T08:15:42.566Z,44.7
2023-11-13T08:21:33.758Z,45.3
2023-11-13T08:27:27.052Z,46
2023-11-13T08:33:22.853Z,46.6
2023-11-13T08:39:14.187Z,47.3
2023-11-13T08:45:05.049Z,47.9
2023-11-13T08:51:14.618Z,48.7
2023-11-13T08:57:06.271Z,49.3
2023-11-13T09:02:44.086Z,49.9
2023-11-13T09:08:40.556Z,50.6
2023-11-13T09:14:32.610Z,50.8
2023-11-13T09:20:09.295Z,50.3
2023-11-13T09:26:02.274Z,51.8
2023-11-13T09:31:53.127Z,52.4
2023-11-13T09:37:45.051Z,52.6
2023-11-13T09:43:38.257Z,53.5
2023-11-13T09:49:43.171Z,54.2
2023-11-13T09:55:43.844Z,54.8
2023-11-13T10:01:37.305Z,55.4
2023-11-13T10:07:33.443Z,55.9
2023-11-13T10:13:09.531Z,56.6
2023-11-13T10:19:06.758Z,57
2023-11-13T10:24:57.609Z,57.6
2023-11-13T10:30:38.158Z,58.1
2023-11-13T10:36:33.562Z,58.5
2023-11-13T10:42:31.592Z,59.1
2023-11-13T10:48:27.105Z,59.4
2023-11-13T10:54:20.003Z,60
2023-11-13T10:59:59.149Z,60.4
2023-11-13T11:05:55.308Z,60.8
2023-11-13T11:11:53.144Z,61.1
2023-11-13T11:17:50.884Z,61.5
2023-11-13T11:23:43.711Z,61.8
2023-11-13T11:29:48.204Z,62.1
2023-11-13T11:35:25.271Z,62.4
2023-11-13T11:41:03.420Z,62.5
2023-11-13T11:47:02.663Z,62.7
2023-11-13T11:53:05.199Z,62.9
2023-11-13T11:58:55.737Z,63.1
2023-11-13T12:04:51.343Z,63.3
2023-11-13T12:10:43.223Z,63.4
2023-11-13T12:16:18.961Z,63.1
2023-11-13T12:22:26.646Z,63.2
2023-11-13T12:28:17.219Z,63.4
2023-11-13T12:34:09.682Z,63.4
2023-11-13T12:39:47.237Z,63.3
2023-11-13T12:45:43.405Z,63.3
2023-11-13T12:51:37.247Z,63.3
2023-11-13T12:57:30.148Z,63.1
2023-11-13T13:03:22.387Z,62.8
2023-11-13T13:09:18.898Z,62.4
2023-11-13T13:15:28.816Z,62.2
2023-11-13T13:21:21.562Z,61.9
2023-11-13T13:27:13.301Z,61.6
2023-11-13T13:33:08.293Z,61.1
2023-11-13T13:39:00.362Z,60.6
2023-11-13T13:44:51.561Z,60
2023-11-13T13:50:44.768Z,59.4
2023-11-13T13:56:39.957Z,58.6
2023-11-13T14:02:46.473Z,57.9
2023-11-13T14:08:40.207Z,55.5
2023-11-13T14:14:37.659Z,52.6
2023-11-13T14:20:45.919Z,50.6
2023-11-13T14:26:41.644Z,49.4
2023-11-13T14:32:03.903Z,48.5
2023-11-13T14:37:56.266Z,47.8
2023-11-13T14:43:35.165Z,47.2
2023-11-13T14:49:29.482Z,46.6
2023-11-13T14:55:27.040Z,46.1
2023-11-13T15:01:20.915Z,45.6
2023-11-13T15:07:14.230Z,45.2
2023-11-13T15:13:04.927Z,44.8
2023-11-13T15:19:06.440Z,44.5
2023-11-13T15:25:38.849Z,44.1
2023-11-13T15:31:17.233Z,43.8
2023-11-13T15:37:18.163Z,43.4
2023-11-13T15:43:10.275Z,43.1
2023-11-13T15:48:47.139Z,42.8
2023-11-13T15:54:24.566Z,42.6
2023-11-13T16:00:16.870Z,42.3
2023-11-13T16:06:13.014Z,42
2023-11-13T16:12:06.210Z,41.8
2023-11-13T16:17:59.479Z,41.6
2023-11-13T16:23:38.818Z,41.1
2023-11-13T16:29:31.195Z,35.9
2023-11-13T16:35:22.958Z,30.6
2023-11-13T16:40:57.877Z,28.4
2023-11-13T16:46:51.037Z,27
2023-11-13T16:52:45.056Z,26.1
2023-11-13T16:58:40.647Z,25.5
2023-11-13T17:04:34.252Z,25
2023-11-13T17:10:27.962Z,24.6
2023-11-13T17:16:04.021Z,24.3
2023-11-13T17:22:00.776Z,24.1
2023-11-13T17:27:40.231Z,23.9
2023-11-13T17:33:34.215Z,23.7
2023-11-13T17:39:26.920Z,23.5
2023-11-13T17:45:02.773Z,23.3
2023-11-13T17:50:39.280Z,23.1
2023-11-13T17:56:31.435Z,23
2023-11-13T18:02:26.390Z,22.8
2023-11-13T18:08:21.449Z,22.7
2023-11-13T18:13:58.610Z,22.6
2023-11-13T18:19:49.663Z,22.5
2023-11-13T18:25:25.125Z,22.4
2023-11-13T18:31:13.001Z,22.3
2023-11-13T18:37:04.638Z,22.1
2023-11-13T18:42:59.960Z,21.9
2023-11-13T18:48:53.004Z,21.8
2023-11-13T18:54:43.720Z,21.8
2023-11-13T19:00:35.386Z,21.7
2023-11-13T19:06:15.475Z,21.6
2023-11-13T19:12:12.747Z,21.6
2023-11-13T19:18:04.519Z,21.5
2023-11-13T19:23:57.357Z,21.4
2023-11-13T19:29:18.447Z,21.4
2023-11-13T19:34:54.415Z,21.3
2023-11-13T19:40:31.474Z,21.3
2023-11-13T19:46:02.516Z,21.3
2023-11-13T19:51:55.088Z,21.2
2023-11-13T19:57:43.652Z,21.2
2023-11-13T20:19:56.093Z,21.1
2023-11-13T20:25:16.571Z,21.1
2023-11-13T20:31:17.486Z,21.1
2023-11-13T20:36:57.373Z,21
2023-11-13T20:42:32.860Z,21
2023-11-13T20:48:11.284Z,20.9
2023-11-13T20:53:46.967Z,20.9
2023-11-13T20:59:22.973Z,20.9
2023-11-13T21:04:47.110Z,20.9
2023-11-13T21:10:36.337Z,20.9
2023-11-13T21:16:28.411Z,20.9
2023-11-13T21:21:50.876Z,20.9
2023-11-13T21:27:42.559Z,20.9
2023-11-13T21:33:20.015Z,20.9
2023-11-13T21:38:56.779Z,20.8
2023-11-13T21:44:48.514Z,20.8
2023-11-13T21:50:09.740Z,20.8
2023-11-13T21:56:01.821Z,20.8
2023-11-13T22:01:39.955Z,20.8
2023-11-13T22:07:01.566Z,20.8
2023-11-13T22:12:53.865Z,20.8
2023-11-13T22:18:31.399Z,20.8
2023-11-13T22:24:07.768Z,20.8
2023-11-13T22:29:44.309Z,20.8
2023-11-13T22:35:21.085Z,20.8
2023-11-13T22:40:56.788Z,20.8
2023-11-13T22:46:34.105Z,20.7
2023-11-13T22:52:11.170Z,20.7
2023-11-13T22:57:32.090Z,20.7
2023-11-13T23:03:09.666Z,20.7
2023-11-13T23:08:46.561Z,20.7
2023-11-13T23:14:22.448Z,20.7
2023-11-13T23:19:59.899Z,20.8
2023-11-13T23:26:00.266Z,20.8
2023-11-13T23:31:36.433Z,20.8
2023-11-13T23:37:13.254Z,20.7
2023-11-13T23:42:50.465Z,20.7
2023-11-13T23:48:26.013Z,20.7
2023-11-13T23:54:02.777Z,20.7
2023-11-13T23:59:39.575Z,20.7
